Time,TemperatureF,DewpointF,PressureIn,WindDirection,WindDirectionDegrees,WindSpeedMPH,WindSpeedGustMPH,Humidity,HourlyPrecipIn,Conditions,Clouds,dailyrainin,SolarRadiationWatts/m^2,SoftwareType,DateUTC
2013-08-04 00:02:00,55.0,49.0,-100.00,North,354,1.0,3.0,79,0.00,,,0.00,0.000000,,2013-08-04 05:02:00,
2013-08-04 00:32:00,55.0,49.0,-100.00,NNW,344,1.0,4.0,81,0.00,,,0.00,0.000000,,2013-08-04 05:32:00,
2013-08-04 00:42:00,55.0,49.0,-100.00,NNW,344,1.0,4.0,81,0.00,,,0.00,0.000000,,2013-08-04 05:42:00,
2013-08-04 00:52:00,55.0,49.0,-100.00,NNW,344,1.0,4.0,81,0.00,,,0.00,0.000000,,2013-08-04 05:52:00,
2013-08-04 01:02:00,55.0,49.0,-100.00,NNW,344,1.0,4.0,81,0.00,,,0.00,0.000000,,2013-08-04 06:02:00,
2013-08-04 01:32:00,50.0,47.0,-100.00,NNW,336,0.0,3.0,88,0.00,,,0.00,0.000000,,2013-08-04 06:32:00,
2013-08-04 01:43:00,50.0,47.0,-100.00,NNW,336,0.0,3.0,88,0.00,,,0.00,0.000000,,2013-08-04 06:43:00,
2013-08-04 01:52:00,50.0,47.0,-100.00,NNW,336,0.0,3.0,88,0.00,,,0.00,0.000000,,2013-08-04 06:52:00,
2013-08-04 02:02:00,50.0,47.0,-100.00,NNW,336,0.0,3.0,88,0.00,,,0.00,0.000000,,2013-08-04 07:02:00,
2013-08-04 02:33:00,48.0,46.0,-100.00,North,351,0.0,2.0,94,0.00,,,0.00,0.000000,,2013-08-04 07:33:00,
2013-08-04 02:43:00,48.0,46.0,-100.00,North,351,0.0,2.0,94,0.00,,,0.00,0.000000,,2013-08-04 07:43:00,
2013-08-04 02:53:00,48.0,46.0,-100.00,North,351,0.0,2.0,94,0.00,,,0.00,0.000000,,2013-08-04 07:53:00,
2013-08-04 03:02:00,48.0,46.0,-100.00,North,351,0.0,2.0,94,0.00,,,0.00,0.000000,,2013-08-04 08:02:00,
2013-08-04 03:33:00,47.0,46.0,-100.00,North,3,1.0,3.0,95,0.00,,,0.00,0.000000,,2013-08-04 08:33:00,
2013-08-04 03:43:00,47.0,46.0,-100.00,North,3,1.0,3.0,95,0.00,,,0.00,0.000000,,2013-08-04 08:43:00,
2013-08-04 03:53:00,47.0,46.0,-100.00,North,3,1.0,3.0,95,0.00,,,0.00,0.000000,,2013-08-04 08:53:00,
2013-08-04 04:02:00,47.0,46.0,-100.00,North,3,1.0,3.0,95,0.00,,,0.00,0.000000,,2013-08-04 09:02:00,
2013-08-04 04:32:00,45.0,44.0,-100.00,North,0,0.0,1.0,95,0.00,,,0.00,0.000000,,2013-08-04 09:32:00,
2013-08-04 04:43:00,45.0,44.0,-100.00,North,0,0.0,1.0,95,0.00,,,0.00,0.000000,,2013-08-04 09:43:00,
2013-08-04 04:52:00,45.0,44.0,-100.00,North,0,0.0,1.0,95,0.00,,,0.00,0.000000,,2013-08-04 09:52:00,
2013-08-04 05:02:00,45.0,44.0,-100.00,North,0,0.0,1.0,95,0.00,,,0.00,0.000000,,2013-08-04 10:02:00,
2013-08-04 05:32:00,44.0,43.0,-100.00,North,0,0.0,0.0,95,0.00,,,0.00,0.000000,,2013-08-04 10:32:00,
2013-08-04 05:43:00,44.0,43.0,-100.00,North,0,0.0,0.0,95,0.00,,,0.00,0.000000,,2013-08-04 10:43:00,
2013-08-04 05:53:00,44.0,43.0,-100.00,North,0,0.0,0.0,95,0.00,,,0.00,0.000000,,2013-08-04 10:53:00,
2013-08-04 06:02:00,44.0,43.0,-100.00,North,0,0.0,0.0,95,0.00,,,0.00,0.000000,,2013-08-04 11:02:00,
2013-08-04 06:32:00,44.0,43.0,-100.00,NNE,21,0.0,2.0,96,0.00,,,-99.99,1.000000,,2013-08-04 11:32:00,
2013-08-04 06:42:00,44.0,43.0,-100.00,NNE,21,0.0,2.0,96,0.00,,,-99.99,1.000000,,2013-08-04 11:42:00,
2013-08-04 06:53:00,44.0,43.0,-100.00,NNE,21,0.0,2.0,96,0.00,,,-99.99,1.000000,,2013-08-04 11:53:00,
2013-08-04 07:02:00,44.0,43.0,-100.00,NNE,21,0.0,2.0,96,0.00,,,-99.99,1.000000,,2013-08-04 12:02:00,
2013-08-04 07:33:00,50.0,49.0,-100.00,NNE,17,0.0,2.0,95,0.00,,,0.00,47.000000,,2013-08-04 12:33:00,
2013-08-04 07:43:00,50.0,49.0,-100.00,NNE,17,0.0,2.0,95,0.00,,,0.00,47.000000,,2013-08-04 12:43:00,
2013-08-04 07:53:00,50.0,49.0,-100.00,NNE,17,0.0,2.0,95,0.00,,,0.00,47.000000,,2013-08-04 12:53:00,
2013-08-04 08:02:00,50.0,49.0,-100.00,NNE,17,0.0,2.0,95,0.00,,,0.00,47.000000,,2013-08-04 13:02:00,
2013-08-04 08:32:00,57.0,52.0,-100.00,NE,54,1.0,3.0,83,0.00,,,0.00,173.000000,,2013-08-04 13:32:00,
2013-08-04 08:43:00,57.0,52.0,-100.00,NE,54,1.0,3.0,83,0.00,,,0.00,173.000000,,2013-08-04 13:43:00,
2013-08-04 08:52:00,57.0,52.0,-100.00,NE,54,1.0,3.0,83,0.00,,,0.00,173.000000,,2013-08-04 13:52:00,
2013-08-04 09:02:00,57.0,52.0,-100.00,NE,54,1.0,3.0,83,0.00,,,0.00,173.000000,,2013-08-04 14:02:00,
2013-08-04 09:32:00,62.0,53.0,-100.00,East,94,0.0,4.0,73,0.00,,,0.00,251.000000,,2013-08-04 14:32:00,
2013-08-04 09:43:00,62.0,53.0,-100.00,East,94,0.0,4.0,73,0.00,,,0.00,251.000000,,2013-08-04 14:43:00,
2013-08-04 09:53:00,62.0,53.0,-100.00,East,94,0.0,4.0,73,0.00,,,0.00,251.000000,,2013-08-04 14:53:00,
2013-08-04 10:02:00,62.0,53.0,-100.00,East,94,0.0,4.0,73,0.00,,,0.00,251.000000,,2013-08-04 15:02:00,
2013-08-04 10:32:00,66.0,53.0,-100.00,South,172,3.0,8.0,64,0.00,,,0.00,327.000000,,2013-08-04 15:32:00,
2013-08-04 10:42:00,66.0,53.0,-100.00,South,172,3.0,8.0,64,0.00,,,0.00,327.000000,,2013-08-04 15:42:00,
2013-08-04 10:53:00,66.0,53.0,-100.00,South,172,3.0,8.0,64,0.00,,,0.00,327.000000,,2013-08-04 15:53:00,
2013-08-04 11:02:00,66.0,53.0,-100.00,South,172,3.0,8.0,64,0.00,,,0.00,327.000000,,2013-08-04 16:02:00,
2013-08-04 11:33:00,70.0,53.0,-100.00,SE,141,2.0,8.0,55,0.00,,,0.00,451.000000,,2013-08-04 16:33:00,
2013-08-04 11:43:00,70.0,53.0,-100.00,SE,141,2.0,8.0,55,0.00,,,0.00,451.000000,,2013-08-04 16:43:00,
2013-08-04 11:53:00,70.0,53.0,-100.00,SE,141,2.0,8.0,55,0.00,,,0.00,451.000000,,2013-08-04 16:53:00,
2013-08-04 12:02:00,70.0,53.0,-100.00,SE,141,2.0,8.0,55,0.00,,,0.00,451.000000,,2013-08-04 17:02:00,
2013-08-04 12:32:00,73.0,52.0,-100.00,East,99,5.0,9.0,48,0.00,,,0.00,661.000000,,2013-08-04 17:32:00,
2013-08-04 12:43:00,73.0,52.0,-100.00,East,99,5.0,9.0,48,0.00,,,0.00,661.000000,,2013-08-04 17:43:00,
2013-08-04 12:53:00,73.0,52.0,-100.00,East,99,5.0,9.0,48,0.00,,,0.00,661.000000,,2013-08-04 17:53:00,
2013-08-04 13:02:00,73.0,52.0,-100.00,East,99,5.0,9.0,48,0.00,,,0.00,661.000000,,2013-08-04 18:02:00,
2013-08-04 13:33:00,74.0,52.0,-100.00,ESE,106,4.0,9.0,47,0.00,,,0.00,492.000000,,2013-08-04 18:33:00,
2013-08-04 13:43:00,74.0,52.0,-100.00,ESE,106,4.0,9.0,47,0.00,,,0.00,492.000000,,2013-08-04 18:43:00,
2013-08-04 13:52:00,74.0,52.0,-100.00,ESE,106,4.0,9.0,47,0.00,,,0.00,492.000000,,2013-08-04 18:52:00,
2013-08-04 14:02:00,74.0,52.0,-100.00,ESE,106,4.0,9.0,47,0.00,,,0.00,492.000000,,2013-08-04 19:02:00,
2013-08-04 14:33:00,72.0,52.0,-100.00,West,262,3.0,10.0,49,0.00,,,0.00,384.000000,,2013-08-04 19:33:00,
2013-08-04 14:43:00,72.0,52.0,-100.00,West,262,3.0,10.0,49,0.00,,,0.00,384.000000,,2013-08-04 19:43:00,
2013-08-04 14:53:00,72.0,52.0,-100.00,West,262,3.0,10.0,49,0.00,,,0.00,384.000000,,2013-08-04 19:53:00,
2013-08-04 15:02:00,72.0,52.0,-100.00,West,262,3.0,10.0,49,0.00,,,0.00,384.000000,,2013-08-04 20:02:00,
2013-08-04 15:33:00,76.0,49.0,-100.00,SSW,201,1.0,8.0,38,0.00,,,0.00,508.000000,,2013-08-04 20:33:00,
2013-08-04 15:42:00,76.0,49.0,-100.00,SSW,201,1.0,8.0,38,0.00,,,0.00,508.000000,,2013-08-04 20:42:00,
2013-08-04 15:53:00,76.0,49.0,-100.00,SSW,201,1.0,8.0,38,0.00,,,0.00,508.000000,,2013-08-04 20:53:00,
2013-08-04 16:02:00,76.0,49.0,-100.00,SSW,201,1.0,8.0,38,0.00,,,0.00,508.000000,,2013-08-04 21:02:00,
2013-08-04 16:32:00,76.0,49.0,-100.00,ENE,57,4.0,8.0,39,0.00,,,0.00,330.000000,,2013-08-04 21:32:00,
2013-08-04 16:43:00,76.0,49.0,-100.00,ENE,57,4.0,8.0,39,0.00,,,0.00,330.000000,,2013-08-04 21:43:00,
2013-08-04 16:53:00,76.0,49.0,-100.00,ENE,57,4.0,8.0,39,0.00,,,0.00,330.000000,,2013-08-04 21:53:00,
2013-08-04 17:02:00,76.0,49.0,-100.00,ENE,57,4.0,8.0,39,0.00,,,0.00,330.000000,,2013-08-04 22:02:00,
2013-08-04 17:32:00,77.0,48.0,-100.00,SW,233,4.0,15.0,36,0.00,,,0.00,567.000000,,2013-08-04 22:32:00,
2013-08-04 17:43:00,77.0,48.0,-100.00,SW,233,4.0,15.0,36,0.00,,,0.00,567.000000,,2013-08-04 22:43:00,
2013-08-04 17:53:00,77.0,48.0,-100.00,SW,233,4.0,15.0,36,0.00,,,0.00,567.000000,,2013-08-04 22:53:00,
2013-08-04 18:02:00,77.0,48.0,-100.00,SW,233,4.0,15.0,36,0.00,,,0.00,567.000000,,2013-08-04 23:02:00,
2013-08-04 18:32:00,78.0,49.0,-100.00,SW,233,4.0,10.0,36,0.00,,,0.00,510.000000,,2013-08-04 23:32:00,
2013-08-04 18:43:00,78.0,49.0,-100.00,SW,233,4.0,10.0,36,0.00,,,0.00,510.000000,,2013-08-04 23:43:00,
2013-08-04 18:53:00,78.0,49.0,-100.00,SW,233,4.0,10.0,36,0.00,,,0.00,510.000000,,2013-08-04 23:53:00,
2013-08-04 19:02:00,78.0,49.0,-100.00,SW,233,4.0,10.0,36,0.00,,,0.00,510.000000,,2013-08-05 00:02:00,
2013-08-04 19:33:00,76.0,50.0,-100.00,SSW,198,2.0,8.0,40,0.00,,,0.00,245.000000,,2013-08-05 00:33:00,
2013-08-04 19:42:00,76.0,50.0,-100.00,SSW,198,2.0,8.0,40,0.00,,,0.00,245.000000,,2013-08-05 00:42:00,
2013-08-04 19:53:00,76.0,50.0,-100.00,SSW,198,2.0,8.0,40,0.00,,,0.00,245.000000,,2013-08-05 00:53:00,
2013-08-04 20:02:00,76.0,50.0,-100.00,SSW,198,2.0,8.0,40,0.00,,,0.00,245.000000,,2013-08-05 01:02:00,
2013-08-04 20:33:00,70.0,52.0,-100.00,SSW,196,1.0,9.0,52,0.00,,,0.00,100.000000,,2013-08-05 01:33:00,
2013-08-04 20:43:00,70.0,52.0,-100.00,SSW,196,1.0,9.0,52,0.00,,,0.00,100.000000,,2013-08-05 01:43:00,
2013-08-04 20:52:00,70.0,52.0,-100.00,SSW,196,1.0,9.0,52,0.00,,,0.00,100.000000,,2013-08-05 01:52:00,
2013-08-04 21:02:00,70.0,52.0,-100.00,SSW,196,1.0,9.0,52,0.00,,,0.00,100.000000,,2013-08-05 02:02:00,
2013-08-04 21:33:00,62.0,52.0,-100.00,SE,135,0.0,5.0,70,0.00,,,0.00,6.000000,,2013-08-05 02:33:00,
2013-08-04 21:43:00,62.0,52.0,-100.00,SE,135,0.0,5.0,70,0.00,,,0.00,6.000000,,2013-08-05 02:43:00,
2013-08-04 21:53:00,62.0,52.0,-100.00,SE,135,0.0,5.0,70,0.00,,,0.00,6.000000,,2013-08-05 02:53:00,
2013-08-04 22:02:00,62.0,52.0,-100.00,SE,135,0.0,5.0,70,0.00,,,0.00,6.000000,,2013-08-05 03:02:00,
2013-08-04 22:32:00,57.0,51.0,-100.00,South,180,0.0,2.0,79,0.00,,,0.00,0.000000,,2013-08-05 03:32:00,
2013-08-04 22:42:00,57.0,51.0,-100.00,South,180,0.0,2.0,79,0.00,,,0.00,0.000000,,2013-08-05 03:42:00,
2013-08-04 22:53:00,57.0,51.0,-100.00,South,180,0.0,2.0,79,0.00,,,0.00,0.000000,,2013-08-05 03:53:00,
2013-08-04 23:02:00,57.0,51.0,-100.00,South,180,0.0,2.0,79,0.00,,,0.00,0.000000,,2013-08-05 04:02:00,
2013-08-04 23:32:00,56.0,51.0,-100.00,SSW,198,0.0,3.0,82,0.00,,,0.00,0.000000,,2013-08-05 04:32:00,
2013-08-04 23:43:00,56.0,51.0,-100.00,SSW,198,0.0,3.0,82,0.00,,,0.00,0.000000,,2013-08-05 04:43:00,
2013-08-04 23:52:00,56.0,51.0,-100.00,SSW,198,0.0,3.0,82,0.00,,,0.00,0.000000,,2013-08-05 04:52:00,